sensor_id;sensor_type;location;lat;lon;timestamp;P1;durP1;ratioP1;P2;durP2;ratioP2
47113;SDS011;32867;51.556;6.832;2024-02-28T00:04:41;23.73;;;13.15;;
47113;SDS011;32867;51.556;6.832;2024-02-28T00:09:42;24.02;;;13.88;;
47113;SDS011;32867;51.556;6.832;2024-02-28T00:14:43;24.63;;;14.32;;
47113;SDS011;32867;51.556;6.832;2024-02-28T00:19:43;23.17;;;13.65;;
47113;SDS011;32867;51.556;6.832;2024-02-28T00:24:44;22.60;;;12.35;;
47113;SDS011;32867;51.556;6.832;2024-02-28T00:29:45;22.13;;;12.73;;
47113;SDS011;32867;51.556;6.832;2024-02-28T00:34:46;21.70;;;11.93;;
47113;SDS011;32867;51.556;6.832;2024-02-28T00:39:47;23.45;;;12.65;;
47113;SDS011;32867;51.556;6.832;2024-02-28T00:44:48;18.35;;;9.65;;
47113;SDS011;32867;51.556;6.832;2024-02-28T00:49:48;20.02;;;11.38;;
47113;SDS011;32867;51.556;6.832;2024-02-28T00:54:49;22.75;;;13.05;;
47113;SDS011;32867;51.556;6.832;2024-02-28T00:59:49;25.75;;;13.48;;
47113;SDS011;32867;51.556;6.832;2024-02-28T01:04:50;28.67;;;16.13;;
47113;SDS011;32867;51.556;6.832;2024-02-28T01:09:51;31.38;;;16.30;;
47113;SDS011;32867;51.556;6.832;2024-02-28T01:14:51;31.80;;;16.48;;
47113;SDS011;32867;51.556;6.832;2024-02-28T01:19:52;35.50;;;15.95;;
47113;SDS011;32867;51.556;6.832;2024-02-28T01:24:52;31.60;;;15.70;;
47113;SDS011;32867;51.556;6.832;2024-02-28T01:29:53;74.57;;;16.20;;
47113;SDS011;32867;51.556;6.832;2024-02-28T01:34:54;86.47;;;15.27;;
47113;SDS011;32867;51.556;6.832;2024-02-28T01:39:54;43.92;;;14.10;;
47113;SDS011;32867;51.556;6.832;2024-02-28T01:44:55;60.35;;;14.98;;
47113;SDS011;32867;51.556;6.832;2024-02-28T01:49:56;41.83;;;13.82;;
47113;SDS011;32867;51.556;6.832;2024-02-28T01:54:56;73.20;;;13.30;;
47113;SDS011;32867;51.556;6.832;2024-02-28T01:59:57;62.20;;;15.13;;
47113;SDS011;32867;51.556;6.832;2024-02-28T02:04:59;29.67;;;13.88;;
47113;SDS011;32867;51.556;6.832;2024-02-28T02:09:59;34.83;;;13.52;;
47113;SDS011;32867;51.556;6.832;2024-02-28T02:15:00;37.03;;;14.85;;
47113;SDS011;32867;51.556;6.832;2024-02-28T02:20:01;40.15;;;17.77;;
47113;SDS011;32867;51.556;6.832;2024-02-28T02:25:03;44.33;;;18.48;;
47113;SDS011;32867;51.556;6.832;2024-02-28T02:30:04;34.20;;;16.95;;
47113;SDS011;32867;51.556;6.832;2024-02-28T02:35:05;45.42;;;18.17;;
47113;SDS011;32867;51.556;6.832;2024-02-28T02:40:06;37.70;;;17.90;;
47113;SDS011;32867;51.556;6.832;2024-02-28T02:45:07;44.55;;;18.60;;
47113;SDS011;32867;51.556;6.832;2024-02-28T02:50:09;43.17;;;17.63;;
47113;SDS011;32867;51.556;6.832;2024-02-28T02:55:10;40.15;;;20.25;;
47113;SDS011;32867;51.556;6.832;2024-02-28T03:00:11;45.38;;;21.15;;
47113;SDS011;32867;51.556;6.832;2024-02-28T03:05:11;43.92;;;20.40;;
47113;SDS011;32867;51.556;6.832;2024-02-28T03:10:12;56.75;;;21.15;;
47113;SDS011;32867;51.556;6.832;2024-02-28T03:15:13;58.10;;;19.90;;
47113;SDS011;32867;51.556;6.832;2024-02-28T03:20:13;56.25;;;21.98;;
47113;SDS011;32867;51.556;6.832;2024-02-28T03:25:14;46.15;;;21.85;;
47113;SDS011;32867;51.556;6.832;2024-02-28T03:30:15;58.45;;;21.65;;
47113;SDS011;32867;51.556;6.832;2024-02-28T03:35:16;41.08;;;20.70;;
47113;SDS011;32867;51.556;6.832;2024-02-28T03:40:16;49.67;;;23.52;;
47113;SDS011;32867;51.556;6.832;2024-02-28T03:45:17;44.80;;;22.55;;
47113;SDS011;32867;51.556;6.832;2024-02-28T03:50:19;51.13;;;22.88;;
47113;SDS011;32867;51.556;6.832;2024-02-28T03:55:20;62.42;;;24.08;;
47113;SDS011;32867;51.556;6.832;2024-02-28T04:00:21;82.35;;;23.88;;
47113;SDS011;32867;51.556;6.832;2024-02-28T04:05:21;85.13;;;25.75;;
47113;SDS011;32867;51.556;6.832;2024-02-28T04:10:22;54.05;;;23.63;;
47113;SDS011;32867;51.556;6.832;2024-02-28T04:15:23;52.55;;;23.52;;
47113;SDS011;32867;51.556;6.832;2024-02-28T04:20:26;68.47;;;28.50;;
47113;SDS011;32867;51.556;6.832;2024-02-28T04:25:26;157.77;;;31.27;;
47113;SDS011;32867;51.556;6.832;2024-02-28T04:30:27;72.95;;;25.55;;
47113;SDS011;32867;51.556;6.832;2024-02-28T04:35:28;73.25;;;28.88;;
47113;SDS011;32867;51.556;6.832;2024-02-28T04:40:29;133.95;;;35.60;;
47113;SDS011;32867;51.556;6.832;2024-02-28T04:45:29;87.05;;;31.33;;
47113;SDS011;32867;51.556;6.832;2024-02-28T04:50:30;126.85;;;36.90;;
47113;SDS011;32867;51.556;6.832;2024-02-28T04:55:30;95.93;;;33.97;;
47113;SDS011;32867;51.556;6.832;2024-02-28T05:00:31;89.30;;;33.65;;
47113;SDS011;32867;51.556;6.832;2024-02-28T05:05:32;88.50;;;36.30;;
47113;SDS011;32867;51.556;6.832;2024-02-28T05:10:33;101.40;;;39.53;;
47113;SDS011;32867;51.556;6.832;2024-02-28T05:15:34;144.55;;;45.67;;
47113;SDS011;32867;51.556;6.832;2024-02-28T05:20:34;212.70;;;47.83;;
47113;SDS011;32867;51.556;6.832;2024-02-28T05:25:35;108.75;;;42.72;;
47113;SDS011;32867;51.556;6.832;2024-02-28T05:30:36;93.47;;;39.80;;
47113;SDS011;32867;51.556;6.832;2024-02-28T05:35:37;100.18;;;39.97;;
47113;SDS011;32867;51.556;6.832;2024-02-28T05:40:37;138.02;;;41.33;;
47113;SDS011;32867;51.556;6.832;2024-02-28T05:45:38;100.38;;;40.92;;
47113;SDS011;32867;51.556;6.832;2024-02-28T05:50:38;156.07;;;46.10;;
47113;SDS011;32867;51.556;6.832;2024-02-28T05:55:40;136.77;;;46.50;;
47113;SDS011;32867;51.556;6.832;2024-02-28T06:00:40;102.90;;;41.47;;
47113;SDS011;32867;51.556;6.832;2024-02-28T06:05:41;105.47;;;43.55;;
47113;SDS011;32867;51.556;6.832;2024-02-28T06:10:41;134.18;;;45.97;;
47113;SDS011;32867;51.556;6.832;2024-02-28T06:15:46;89.97;;;38.47;;
47113;SDS011;32867;51.556;6.832;2024-02-28T06:20:47;116.05;;;38.83;;
47113;SDS011;32867;51.556;6.832;2024-02-28T06:25:48;98.95;;;37.30;;
47113;SDS011;32867;51.556;6.832;2024-02-28T06:30:49;91.40;;;38.40;;
47113;SDS011;32867;51.556;6.832;2024-02-28T06:35:49;93.60;;;36.97;;
47113;SDS011;32867;51.556;6.832;2024-02-28T06:40:50;82.65;;;36.95;;
47113;SDS011;32867;51.556;6.832;2024-02-28T06:45:51;78.90;;;34.28;;
47113;SDS011;32867;51.556;6.832;2024-02-28T06:50:51;102.35;;;38.58;;
47113;SDS011;32867;51.556;6.832;2024-02-28T06:55:52;89.07;;;37.50;;
47113;SDS011;32867;51.556;6.832;2024-02-28T07:00:52;104.72;;;42.05;;
47113;SDS011;32867;51.556;6.832;2024-02-28T07:05:53;113.22;;;39.58;;
47113;SDS011;32867;51.556;6.832;2024-02-28T07:10:54;128.90;;;43.30;;
47113;SDS011;32867;51.556;6.832;2024-02-28T07:15:55;120.25;;;41.00;;
47113;SDS011;32867;51.556;6.832;2024-02-28T07:20:57;98.88;;;40.10;;
47113;SDS011;32867;51.556;6.832;2024-02-28T07:25:58;94.47;;;37.35;;
47113;SDS011;32867;51.556;6.832;2024-02-28T07:30:58;113.63;;;42.70;;
47113;SDS011;32867;51.556;6.832;2024-02-28T07:35:59;102.30;;;36.08;;
47113;SDS011;32867;51.556;6.832;2024-02-28T07:41:01;106.20;;;34.45;;
47113;SDS011;32867;51.556;6.832;2024-02-28T07:46:01;78.53;;;32.97;;
47113;SDS011;32867;51.556;6.832;2024-02-28T07:51:05;78.57;;;32.70;;
47113;SDS011;32867;51.556;6.832;2024-02-28T07:56:16;96.85;;;33.13;;
47113;SDS011;32867;51.556;6.832;2024-02-28T08:01:17;82.45;;;32.10;;
47113;SDS011;32867;51.556;6.832;2024-02-28T08:06:18;110.35;;;33.30;;
47113;SDS011;32867;51.556;6.832;2024-02-28T08:11:19;104.45;;;36.17;;
47113;SDS011;32867;51.556;6.832;2024-02-28T08:16:19;83.78;;;34.00;;
47113;SDS011;32867;51.556;6.832;2024-02-28T08:21:20;97.95;;;34.90;;
47113;SDS011;32867;51.556;6.832;2024-02-28T08:26:20;95.70;;;36.08;;
47113;SDS011;32867;51.556;6.832;2024-02-28T08:31:21;110.00;;;35.83;;
47113;SDS011;32867;51.556;6.832;2024-02-28T08:36:22;97.65;;;35.88;;
47113;SDS011;32867;51.556;6.832;2024-02-28T08:41:23;103.40;;;37.40;;
47113;SDS011;32867;51.556;6.832;2024-02-28T08:46:23;104.70;;;37.78;;
47113;SDS011;32867;51.556;6.832;2024-02-28T08:51:24;106.20;;;39.35;;
47113;SDS011;32867;51.556;6.832;2024-02-28T08:56:25;104.82;;;38.30;;
47113;SDS011;32867;51.556;6.832;2024-02-28T09:01:25;100.18;;;37.88;;
47113;SDS011;32867;51.556;6.832;2024-02-28T09:06:26;113.03;;;40.72;;
47113;SDS011;32867;51.556;6.832;2024-02-28T09:11:27;108.32;;;39.00;;
47113;SDS011;32867;51.556;6.832;2024-02-28T09:16:27;108.47;;;38.83;;
47113;SDS011;32867;51.556;6.832;2024-02-28T09:21:28;105.88;;;40.92;;
47113;SDS011;32867;51.556;6.832;2024-02-28T09:26:29;114.00;;;42.05;;
47113;SDS011;32867;51.556;6.832;2024-02-28T09:31:30;114.70;;;42.83;;
47113;SDS011;32867;51.556;6.832;2024-02-28T09:36:30;109.82;;;43.38;;
47113;SDS011;32867;51.556;6.832;2024-02-28T09:41:31;123.40;;;45.65;;
47113;SDS011;32867;51.556;6.832;2024-02-28T09:46:32;111.05;;;41.80;;
47113;SDS011;32867;51.556;6.832;2024-02-28T09:51:37;114.80;;;41.92;;
47113;SDS011;32867;51.556;6.832;2024-02-28T09:56:37;108.22;;;38.25;;
47113;SDS011;32867;51.556;6.832;2024-02-28T10:01:42;98.30;;;35.97;;
47113;SDS011;32867;51.556;6.832;2024-02-28T10:06:46;100.30;;;39.25;;
47113;SDS011;32867;51.556;6.832;2024-02-28T10:11:49;94.68;;;35.95;;
47113;SDS011;32867;51.556;6.832;2024-02-28T10:16:50;84.15;;;34.92;;
47113;SDS011;32867;51.556;6.832;2024-02-28T10:21:52;83.28;;;32.47;;
47113;SDS011;32867;51.556;6.832;2024-02-28T10:26:52;85.38;;;33.88;;
47113;SDS011;32867;51.556;6.832;2024-02-28T10:31:56;74.10;;;31.38;;
47113;SDS011;32867;51.556;6.832;2024-02-28T10:36:57;74.70;;;33.63;;
47113;SDS011;32867;51.556;6.832;2024-02-28T10:41:59;66.38;;;31.17;;
47113;SDS011;32867;51.556;6.832;2024-02-28T10:47:01;74.32;;;30.38;;
47113;SDS011;32867;51.556;6.832;2024-02-28T10:52:02;71.30;;;32.60;;
47113;SDS011;32867;51.556;6.832;2024-02-28T10:57:04;76.13;;;33.15;;
47113;SDS011;32867;51.556;6.832;2024-02-28T11:02:06;77.20;;;35.10;;
47113;SDS011;32867;51.556;6.832;2024-02-28T11:07:07;86.53;;;36.67;;
47113;SDS011;32867;51.556;6.832;2024-02-28T11:12:07;76.65;;;35.90;;
47113;SDS011;32867;51.556;6.832;2024-02-28T11:17:28;74.60;;;34.60;;
47113;SDS011;32867;51.556;6.832;2024-02-28T11:22:29;80.07;;;35.33;;
47113;SDS011;32867;51.556;6.832;2024-02-28T11:27:32;67.82;;;32.03;;
47113;SDS011;32867;51.556;6.832;2024-02-28T11:32:33;65.90;;;31.45;;
47113;SDS011;32867;51.556;6.832;2024-02-28T11:37:34;71.25;;;32.88;;
47113;SDS011;32867;51.556;6.832;2024-02-28T11:42:34;69.35;;;31.85;;
47113;SDS011;32867;51.556;6.832;2024-02-28T11:47:35;66.53;;;31.35;;
47113;SDS011;32867;51.556;6.832;2024-02-28T11:52:36;56.40;;;27.85;;
47113;SDS011;32867;51.556;6.832;2024-02-28T11:57:37;58.25;;;27.75;;
47113;SDS011;32867;51.556;6.832;2024-02-28T12:02:39;54.15;;;26.60;;
47113;SDS011;32867;51.556;6.832;2024-02-28T12:07:40;55.15;;;27.45;;
47113;SDS011;32867;51.556;6.832;2024-02-28T12:12:41;62.42;;;29.08;;
47113;SDS011;32867;51.556;6.832;2024-02-28T12:17:42;59.13;;;29.33;;
47113;SDS011;32867;51.556;6.832;2024-02-28T12:22:43;59.60;;;29.17;;
47113;SDS011;32867;51.556;6.832;2024-02-28T12:27:44;54.38;;;29.55;;
47113;SDS011;32867;51.556;6.832;2024-02-28T12:32:45;59.13;;;30.15;;
47113;SDS011;32867;51.556;6.832;2024-02-28T12:37:46;56.08;;;29.67;;
47113;SDS011;32867;51.556;6.832;2024-02-28T12:42:48;57.83;;;29.13;;
47113;SDS011;32867;51.556;6.832;2024-02-28T12:47:49;61.47;;;29.42;;
47113;SDS011;32867;51.556;6.832;2024-02-28T12:52:50;57.63;;;30.42;;
47113;SDS011;32867;51.556;6.832;2024-02-28T12:57:53;60.75;;;31.25;;
47113;SDS011;32867;51.556;6.832;2024-02-28T13:02:54;57.80;;;31.00;;
47113;SDS011;32867;51.556;6.832;2024-02-28T13:07:55;55.63;;;28.85;;
47113;SDS011;32867;51.556;6.832;2024-02-28T13:12:56;52.35;;;27.67;;
47113;SDS011;32867;51.556;6.832;2024-02-28T13:17:57;48.92;;;27.45;;
47113;SDS011;32867;51.556;6.832;2024-02-28T13:22:57;51.13;;;27.83;;
47113;SDS011;32867;51.556;6.832;2024-02-28T13:27:58;49.28;;;27.27;;
47113;SDS011;32867;51.556;6.832;2024-02-28T13:32:58;41.20;;;22.05;;
47113;SDS011;32867;51.556;6.832;2024-02-28T13:37:59;42.15;;;24.38;;
47113;SDS011;32867;51.556;6.832;2024-02-28T13:43:00;41.88;;;23.05;;
47113;SDS011;32867;51.556;6.832;2024-02-28T13:48:02;41.30;;;23.77;;
47113;SDS011;32867;51.556;6.832;2024-02-28T13:53:03;46.65;;;23.25;;
47113;SDS011;32867;51.556;6.832;2024-02-28T13:58:04;40.65;;;21.30;;
47113;SDS011;32867;51.556;6.832;2024-02-28T14:03:06;37.60;;;21.27;;
47113;SDS011;32867;51.556;6.832;2024-02-28T14:08:06;44.17;;;23.00;;
47113;SDS011;32867;51.556;6.832;2024-02-28T14:13:12;37.17;;;21.23;;
47113;SDS011;32867;51.556;6.832;2024-02-28T14:18:12;33.70;;;19.98;;
47113;SDS011;32867;51.556;6.832;2024-02-28T14:23:13;34.70;;;19.83;;
47113;SDS011;32867;51.556;6.832;2024-02-28T14:28:14;35.65;;;20.77;;
47113;SDS011;32867;51.556;6.832;2024-02-28T14:33:14;33.00;;;19.48;;
47113;SDS011;32867;51.556;6.832;2024-02-28T14:38:15;39.45;;;20.42;;
47113;SDS011;32867;51.556;6.832;2024-02-28T14:43:16;35.28;;;20.55;;
47113;SDS011;32867;51.556;6.832;2024-02-28T14:48:17;36.92;;;21.25;;
47113;SDS011;32867;51.556;6.832;2024-02-28T14:53:18;30.67;;;17.17;;
47113;SDS011;32867;51.556;6.832;2024-02-28T14:58:20;36.47;;;20.05;;
47113;SDS011;32867;51.556;6.832;2024-02-28T15:03:21;32.42;;;18.15;;
47113;SDS011;32867;51.556;6.832;2024-02-28T15:08:23;33.28;;;18.38;;
47113;SDS011;32867;51.556;6.832;2024-02-28T15:13:24;32.60;;;18.23;;
47113;SDS011;32867;51.556;6.832;2024-02-28T15:18:24;31.05;;;17.92;;
47113;SDS011;32867;51.556;6.832;2024-02-28T15:23:25;34.97;;;18.98;;
47113;SDS011;32867;51.556;6.832;2024-02-28T15:28:25;32.20;;;18.58;;
47113;SDS011;32867;51.556;6.832;2024-02-28T15:33:26;30.83;;;18.25;;
47113;SDS011;32867;51.556;6.832;2024-02-28T15:38:28;32.70;;;18.42;;
47113;SDS011;32867;51.556;6.832;2024-02-28T15:43:29;34.80;;;19.60;;
47113;SDS011;32867;51.556;6.832;2024-02-28T15:48:29;34.00;;;19.25;;
47113;SDS011;32867;51.556;6.832;2024-02-28T15:53:30;32.88;;;18.88;;
47113;SDS011;32867;51.556;6.832;2024-02-28T15:58:30;29.95;;;16.92;;
47113;SDS011;32867;51.556;6.832;2024-02-28T16:03:31;33.55;;;18.25;;
47113;SDS011;32867;51.556;6.832;2024-02-28T16:08:32;34.15;;;17.70;;
47113;SDS011;32867;51.556;6.832;2024-02-28T16:13:33;34.92;;;16.88;;
47113;SDS011;32867;51.556;6.832;2024-02-28T16:18:34;26.77;;;15.07;;
47113;SDS011;32867;51.556;6.832;2024-02-28T16:23:34;28.85;;;15.05;;
47113;SDS011;32867;51.556;6.832;2024-02-28T16:28:35;28.08;;;15.00;;
47113;SDS011;32867;51.556;6.832;2024-02-28T16:33:37;32.38;;;17.08;;
47113;SDS011;32867;51.556;6.832;2024-02-28T16:38:38;31.00;;;16.50;;
47113;SDS011;32867;51.556;6.832;2024-02-28T16:43:39;29.70;;;15.43;;
47113;SDS011;32867;51.556;6.832;2024-02-28T16:48:40;29.25;;;14.60;;
47113;SDS011;32867;51.556;6.832;2024-02-28T16:53:40;26.67;;;13.77;;
47113;SDS011;32867;51.556;6.832;2024-02-28T16:58:41;26.92;;;14.23;;
47113;SDS011;32867;51.556;6.832;2024-02-28T17:03:42;27.75;;;14.90;;
47113;SDS011;32867;51.556;6.832;2024-02-28T17:08:43;28.05;;;14.50;;
47113;SDS011;32867;51.556;6.832;2024-02-28T17:13:44;26.80;;;13.98;;
47113;SDS011;32867;51.556;6.832;2024-02-28T17:18:44;27.83;;;16.15;;
47113;SDS011;32867;51.556;6.832;2024-02-28T17:23:45;31.42;;;15.88;;
47113;SDS011;32867;51.556;6.832;2024-02-28T17:28:45;27.55;;;13.90;;
47113;SDS011;32867;51.556;6.832;2024-02-28T17:33:48;26.27;;;14.68;;
47113;SDS011;32867;51.556;6.832;2024-02-28T17:38:49;24.17;;;13.48;;
47113;SDS011;32867;51.556;6.832;2024-02-28T17:43:49;26.05;;;14.32;;
47113;SDS011;32867;51.556;6.832;2024-02-28T17:48:50;22.92;;;13.45;;
47113;SDS011;32867;51.556;6.832;2024-02-28T17:53:51;28.50;;;15.25;;
47113;SDS011;32867;51.556;6.832;2024-02-28T17:58:51;29.50;;;15.63;;
47113;SDS011;32867;51.556;6.832;2024-02-28T18:03:52;29.83;;;15.75;;
47113;SDS011;32867;51.556;6.832;2024-02-28T18:08:53;29.35;;;16.10;;
47113;SDS011;32867;51.556;6.832;2024-02-28T18:13:53;29.88;;;15.77;;
47113;SDS011;32867;51.556;6.832;2024-02-28T18:18:54;34.17;;;16.38;;
47113;SDS011;32867;51.556;6.832;2024-02-28T18:23:54;31.58;;;16.10;;
47113;SDS011;32867;51.556;6.832;2024-02-28T18:28:55;29.75;;;16.02;;
47113;SDS011;32867;51.556;6.832;2024-02-28T18:33:57;33.45;;;17.27;;
47113;SDS011;32867;51.556;6.832;2024-02-28T18:38:58;32.25;;;17.63;;
47113;SDS011;32867;51.556;6.832;2024-02-28T18:43:58;36.33;;;18.13;;
47113;SDS011;32867;51.556;6.832;2024-02-28T18:48:59;36.88;;;18.38;;
47113;SDS011;32867;51.556;6.832;2024-02-28T18:54:01;33.88;;;17.70;;
47113;SDS011;32867;51.556;6.832;2024-02-28T18:59:03;33.28;;;17.17;;
47113;SDS011;32867;51.556;6.832;2024-02-28T19:04:04;34.30;;;17.08;;
47113;SDS011;32867;51.556;6.832;2024-02-28T19:09:05;32.72;;;17.60;;
47113;SDS011;32867;51.556;6.832;2024-02-28T19:14:06;36.33;;;18.27;;
47113;SDS011;32867;51.556;6.832;2024-02-28T19:19:06;38.53;;;19.13;;
47113;SDS011;32867;51.556;6.832;2024-02-28T19:24:07;36.25;;;19.02;;
47113;SDS011;32867;51.556;6.832;2024-02-28T19:29:09;33.33;;;18.48;;
47113;SDS011;32867;51.556;6.832;2024-02-28T19:34:11;38.53;;;18.90;;
47113;SDS011;32867;51.556;6.832;2024-02-28T19:39:13;37.72;;;19.98;;
47113;SDS011;32867;51.556;6.832;2024-02-28T19:44:14;39.60;;;19.98;;
47113;SDS011;32867;51.556;6.832;2024-02-28T19:49:15;37.33;;;19.30;;
47113;SDS011;32867;51.556;6.832;2024-02-28T19:54:16;36.25;;;19.92;;
47113;SDS011;32867;51.556;6.832;2024-02-28T19:59:17;32.50;;;18.52;;
47113;SDS011;32867;51.556;6.832;2024-02-28T20:04:17;34.00;;;18.60;;
47113;SDS011;32867;51.556;6.832;2024-02-28T20:09:18;38.17;;;19.00;;
47113;SDS011;32867;51.556;6.832;2024-02-28T20:14:19;31.35;;;17.95;;
47113;SDS011;32867;51.556;6.832;2024-02-28T20:19:19;38.83;;;19.25;;
47113;SDS011;32867;51.556;6.832;2024-02-28T20:24:20;38.85;;;20.40;;
47113;SDS011;32867;51.556;6.832;2024-02-28T20:29:20;35.75;;;19.33;;
47113;SDS011;32867;51.556;6.832;2024-02-28T20:34:21;36.45;;;20.40;;
47113;SDS011;32867;51.556;6.832;2024-02-28T20:39:22;42.40;;;21.80;;
47113;SDS011;32867;51.556;6.832;2024-02-28T20:44:23;41.38;;;21.05;;
47113;SDS011;32867;51.556;6.832;2024-02-28T20:49:24;39.35;;;19.95;;
47113;SDS011;32867;51.556;6.832;2024-02-28T20:54:25;41.33;;;20.77;;
47113;SDS011;32867;51.556;6.832;2024-02-28T20:59:27;37.53;;;20.42;;
47113;SDS011;32867;51.556;6.832;2024-02-28T21:04:28;38.03;;;19.88;;
47113;SDS011;32867;51.556;6.832;2024-02-28T21:09:29;36.38;;;19.17;;
47113;SDS011;32867;51.556;6.832;2024-02-28T21:14:29;39.00;;;20.55;;
47113;SDS011;32867;51.556;6.832;2024-02-28T21:19:30;40.28;;;21.00;;
47113;SDS011;32867;51.556;6.832;2024-02-28T21:24:31;34.25;;;19.23;;
47113;SDS011;32867;51.556;6.832;2024-02-28T21:29:32;33.75;;;18.65;;
47113;SDS011;32867;51.556;6.832;2024-02-28T21:34:33;37.83;;;19.40;;
47113;SDS011;32867;51.556;6.832;2024-02-28T21:39:33;31.85;;;18.35;;
47113;SDS011;32867;51.556;6.832;2024-02-28T21:44:34;35.10;;;19.95;;
47113;SDS011;32867;51.556;6.832;2024-02-28T21:49:35;33.95;;;19.55;;
47113;SDS011;32867;51.556;6.832;2024-02-28T21:54:39;36.83;;;18.63;;
47113;SDS011;32867;51.556;6.832;2024-02-28T21:59:41;36.47;;;18.65;;
47113;SDS011;32867;51.556;6.832;2024-02-28T22:04:41;36.78;;;19.02;;
47113;SDS011;32867;51.556;6.832;2024-02-28T22:09:42;34.65;;;18.42;;
47113;SDS011;32867;51.556;6.832;2024-02-28T22:14:43;37.38;;;18.90;;
47113;SDS011;32867;51.556;6.832;2024-02-28T22:19:43;32.97;;;18.40;;
47113;SDS011;32867;51.556;6.832;2024-02-28T22:24:44;33.50;;;18.13;;
47113;SDS011;32867;51.556;6.832;2024-02-28T22:29:45;32.63;;;17.92;;
47113;SDS011;32867;51.556;6.832;2024-02-28T22:34:45;27.85;;;16.05;;
47113;SDS011;32867;51.556;6.832;2024-02-28T22:39:46;27.17;;;15.90;;
47113;SDS011;32867;51.556;6.832;2024-02-28T22:44:47;27.33;;;15.38;;
47113;SDS011;32867;51.556;6.832;2024-02-28T22:49:47;24.83;;;14.25;;
47113;SDS011;32867;51.556;6.832;2024-02-28T22:54:49;25.00;;;14.52;;
47113;SDS011;32867;51.556;6.832;2024-02-28T22:59:49;25.90;;;14.55;;
47113;SDS011;32867;51.556;6.832;2024-02-28T23:04:50;22.85;;;13.02;;
47113;SDS011;32867;51.556;6.832;2024-02-28T23:09:50;22.50;;;12.90;;
47113;SDS011;32867;51.556;6.832;2024-02-28T23:14:51;24.85;;;13.20;;
47113;SDS011;32867;51.556;6.832;2024-02-28T23:19:52;27.20;;;13.60;;
47113;SDS011;32867;51.556;6.832;2024-02-28T23:24:52;29.17;;;14.85;;
47113;SDS011;32867;51.556;6.832;2024-02-28T23:29:53;25.67;;;13.38;;
47113;SDS011;32867;51.556;6.832;2024-02-28T23:34:54;26.25;;;13.57;;
47113;SDS011;32867;51.556;6.832;2024-02-28T23:39:54;24.23;;;13.68;;
47113;SDS011;32867;51.556;6.832;2024-02-28T23:44:55;24.73;;;13.90;;
47113;SDS011;32867;51.556;6.832;2024-02-28T23:49:55;24.17;;;13.15;;
47113;SDS011;32867;51.556;6.832;2024-02-28T23:54:56;23.67;;;12.75;;
47113;SDS011;32867;51.556;6.832;2024-02-28T23:59:57;24.25;;;12.68;;
